Time,TemperatureF,DewpointF,PressureIn,WindDirection,WindDirectionDegrees,WindSpeedMPH,WindSpeedGustMPH,Humidity,HourlyPrecipIn,Conditions,Clouds,dailyrainin,SoftwareType,DateUTC
2013-01-16 00:00:00,7.3,4.3,30.20,SSE,157,0.0,1.0,87,0.00,,,0.00,meteohub,2013-01-16 05:00:00,
2013-01-16 00:01:00,7.5,4.5,30.20,SSE,157,0.0,1.0,87,0.00,,,0.00,meteohub,2013-01-16 05:01:00,
2013-01-16 00:05:00,7.7,4.5,30.19,SSE,157,0.0,1.0,86,0.00,,,0.00,meteohub,2013-01-16 05:05:00,
2013-01-16 00:06:00,7.7,4.5,30.19,SSE,157,1.0,1.0,86,0.00,,,0.00,meteohub,2013-01-16 05:06:00,
2013-01-16 00:11:00,7.9,4.3,30.19,SE,144,0.0,2.0,85,0.00,,,0.00,meteohub,2013-01-16 05:11:00,
2013-01-16 00:16:00,8.1,4.8,30.19,South,169,0.0,2.0,86,0.00,,,0.00,meteohub,2013-01-16 05:16:00,
2013-01-16 00:22:00,8.2,5.0,30.20,South,169,0.0,2.0,86,0.00,,,0.00,meteohub,2013-01-16 05:22:00,
2013-01-16 00:27:00,8.8,5.2,30.20,SSE,155,0.0,2.0,85,0.00,,,0.00,meteohub,2013-01-16 05:27:00,
2013-01-16 00:32:00,9.3,5.9,30.20,South,178,1.0,2.0,86,0.00,,,0.00,meteohub,2013-01-16 05:32:00,
2013-01-16 00:37:00,9.9,6.1,30.20,South,173,2.0,3.0,84,0.00,,,0.00,meteohub,2013-01-16 05:37:00,
2013-01-16 00:42:00,10.2,6.4,30.20,South,173,0.0,4.0,84,0.00,,,0.00,meteohub,2013-01-16 05:42:00,
2013-01-16 00:47:00,10.4,6.3,30.20,South,173,1.0,4.0,83,0.00,,,0.00,meteohub,2013-01-16 05:47:00,
2013-01-16 00:52:00,10.4,6.3,30.20,South,173,0.0,4.0,83,0.00,,,0.00,meteohub,2013-01-16 05:52:00,
2013-01-16 00:57:00,10.4,6.3,30.20,South,173,2.0,2.0,83,0.00,,,0.00,meteohub,2013-01-16 05:57:00,
2013-01-16 01:02:00,10.6,6.4,30.19,South,173,0.0,2.0,83,0.00,,,0.00,meteohub,2013-01-16 06:02:00,
2013-01-16 01:07:00,10.8,6.6,30.19,South,173,0.0,2.0,83,0.00,,,0.00,meteohub,2013-01-16 06:07:00,
2013-01-16 01:12:00,10.9,7.0,30.19,South,173,1.0,2.0,84,0.00,,,0.00,meteohub,2013-01-16 06:12:00,
2013-01-16 01:17:00,11.1,7.0,30.19,South,173,0.0,3.0,83,0.00,,,0.00,meteohub,2013-01-16 06:17:00,
2013-01-16 01:22:00,10.9,6.8,30.19,South,173,0.0,3.0,83,0.00,,,0.00,meteohub,2013-01-16 06:22:00,
2013-01-16 01:27:00,10.9,6.8,30.20,South,173,0.0,1.0,83,0.00,,,0.00,meteohub,2013-01-16 06:27:00,
2013-01-16 01:32:00,10.8,6.4,30.20,South,173,0.0,1.0,82,0.00,,,0.00,meteohub,2013-01-16 06:32:00,
2013-01-16 01:37:00,10.6,6.3,30.20,South,173,0.0,0.0,82,0.00,,,0.00,meteohub,2013-01-16 06:37:00,
2013-01-16 01:42:00,10.2,6.1,30.19,South,173,0.0,0.0,83,0.00,,,0.00,meteohub,2013-01-16 06:42:00,
2013-01-16 01:47:00,10.4,6.6,30.20,South,173,0.0,0.0,84,0.00,,,0.00,meteohub,2013-01-16 06:47:00,
2013-01-16 01:52:00,10.4,6.6,30.20,South,173,0.0,0.0,84,0.00,,,0.00,meteohub,2013-01-16 06:52:00,
2013-01-16 01:57:00,10.4,6.6,30.20,South,173,0.0,0.0,84,0.00,,,0.00,meteohub,2013-01-16 06:57:00,
2013-01-16 02:02:00,10.4,6.8,30.20,South,173,0.0,0.0,85,0.00,,,0.00,meteohub,2013-01-16 07:02:00,
2013-01-16 02:07:00,10.4,6.8,30.20,South,173,0.0,0.0,85,0.00,,,0.00,meteohub,2013-01-16 07:07:00,
2013-01-16 02:12:00,10.6,6.6,30.20,South,173,0.0,0.0,84,0.00,,,0.00,meteohub,2013-01-16 07:12:00,
2013-01-16 02:17:00,10.4,6.6,30.20,South,173,0.0,0.0,84,0.00,,,0.00,meteohub,2013-01-16 07:17:00,
2013-01-16 02:22:00,10.4,6.8,30.20,South,173,0.0,0.0,85,0.00,,,0.00,meteohub,2013-01-16 07:22:00,
2013-01-16 02:27:00,10.6,7.0,30.20,South,173,0.0,1.0,85,0.00,,,0.00,meteohub,2013-01-16 07:27:00,
2013-01-16 02:32:00,10.6,6.6,30.20,South,173,0.0,1.0,84,0.00,,,0.00,meteohub,2013-01-16 07:32:00,
2013-01-16 02:38:00,10.4,6.6,30.20,South,173,0.0,1.0,84,0.00,,,0.00,meteohub,2013-01-16 07:38:00,
2013-01-16 02:43:00,10.2,6.6,30.20,South,173,0.0,0.0,85,0.00,,,0.00,meteohub,2013-01-16 07:43:00,
2013-01-16 02:48:00,9.9,6.3,30.20,SW,222,0.0,1.0,85,0.00,,,0.00,meteohub,2013-01-16 07:48:00,
2013-01-16 02:53:00,9.7,6.1,30.20,SW,222,0.0,1.0,85,0.00,,,0.00,meteohub,2013-01-16 07:53:00,
2013-01-16 02:58:00,9.3,5.9,30.19,SW,222,0.0,1.0,86,0.00,,,0.00,meteohub,2013-01-16 07:58:00,
2013-01-16 03:03:00,9.3,5.9,30.19,SW,222,0.0,2.0,86,0.00,,,0.00,meteohub,2013-01-16 08:03:00,
2013-01-16 03:08:00,9.1,5.7,30.19,SW,222,0.0,2.0,86,0.00,,,0.00,meteohub,2013-01-16 08:08:00,
2013-01-16 03:14:00,9.0,5.9,30.19,SW,222,0.0,2.0,87,0.00,,,0.00,meteohub,2013-01-16 08:14:00,
2013-01-16 03:19:00,9.0,5.9,30.18,SW,222,1.0,2.0,87,0.00,,,0.00,meteohub,2013-01-16 08:19:00,
2013-01-16 03:24:00,9.0,5.9,30.18,SW,223,0.0,2.0,87,0.00,,,0.00,meteohub,2013-01-16 08:24:00,
2013-01-16 03:29:00,9.0,5.9,30.19,SW,223,0.0,2.0,87,0.00,,,0.00,meteohub,2013-01-16 08:29:00,
2013-01-16 03:34:00,9.0,5.9,30.19,SW,223,0.0,2.0,87,0.00,,,0.00,meteohub,2013-01-16 08:34:00,
2013-01-16 03:40:00,9.0,5.9,30.18,SW,223,0.0,2.0,87,0.00,,,0.00,meteohub,2013-01-16 08:40:00,
2013-01-16 03:45:00,8.8,5.7,30.18,SW,223,0.0,0.0,87,0.00,,,0.00,meteohub,2013-01-16 08:45:00,
2013-01-16 03:50:00,8.6,5.5,30.18,SW,223,0.0,0.0,87,0.00,,,0.00,meteohub,2013-01-16 08:50:00,
2013-01-16 03:55:00,8.6,5.7,30.18,SW,223,0.0,0.0,88,0.00,,,0.00,meteohub,2013-01-16 08:55:00,
2013-01-16 04:00:00,8.6,5.7,30.18,SW,223,0.0,0.0,88,0.00,,,0.00,meteohub,2013-01-16 09:00:00,
2013-01-16 04:05:00,8.8,5.9,30.17,SW,223,0.0,0.0,88,0.00,,,0.00,meteohub,2013-01-16 09:05:00,
2013-01-16 04:10:00,8.8,5.9,30.17,SW,223,0.0,0.0,88,0.00,,,0.00,meteohub,2013-01-16 09:10:00,
2013-01-16 04:15:00,8.8,5.9,30.16,SW,223,0.0,0.0,88,0.00,,,0.00,meteohub,2013-01-16 09:15:00,
2013-01-16 04:21:00,8.6,5.7,30.16,SW,223,0.0,0.0,88,0.00,,,0.00,meteohub,2013-01-16 09:21:00,
2013-01-16 04:26:00,8.4,5.5,30.17,SW,223,0.0,0.0,88,0.00,,,0.00,meteohub,2013-01-16 09:26:00,
2013-01-16 04:31:00,8.2,5.4,30.17,SW,223,0.0,0.0,88,0.00,,,0.00,meteohub,2013-01-16 09:31:00,
2013-01-16 04:36:00,8.1,5.2,30.17,SW,223,0.0,0.0,88,0.00,,,0.00,meteohub,2013-01-16 09:36:00,
2013-01-16 04:41:00,8.1,5.2,30.17,SW,223,0.0,0.0,88,0.00,,,0.00,meteohub,2013-01-16 09:41:00,
2013-01-16 04:46:00,7.9,5.0,30.17,SW,223,0.0,0.0,88,0.00,,,0.00,meteohub,2013-01-16 09:46:00,
2013-01-16 04:52:00,7.9,5.4,30.17,SW,223,0.0,0.0,89,0.00,,,0.00,meteohub,2013-01-16 09:52:00,
2013-01-16 04:57:00,7.7,5.2,30.17,SW,223,0.0,0.0,89,0.00,,,0.00,meteohub,2013-01-16 09:57:00,
2013-01-16 05:02:00,7.5,5.0,30.17,SW,223,0.0,0.0,89,0.00,,,0.00,meteohub,2013-01-16 10:02:00,
2013-01-16 05:07:00,7.3,4.8,30.17,SW,223,0.0,0.0,89,0.00,,,0.00,meteohub,2013-01-16 10:07:00,
2013-01-16 05:12:00,7.3,4.8,30.16,SW,223,0.0,0.0,89,0.00,,,0.00,meteohub,2013-01-16 10:12:00,
2013-01-16 05:17:00,7.3,4.8,30.16,SW,223,0.0,0.0,89,0.00,,,0.00,meteohub,2013-01-16 10:17:00,
2013-01-16 05:22:00,7.3,4.8,30.16,SW,223,0.0,0.0,89,0.00,,,0.00,meteohub,2013-01-16 10:22:00,
2013-01-16 05:27:00,7.3,5.0,30.16,SW,223,0.0,0.0,90,0.00,,,0.00,meteohub,2013-01-16 10:27:00,
2013-01-16 05:32:00,7.2,4.8,30.16,SW,223,0.0,0.0,90,0.00,,,0.00,meteohub,2013-01-16 10:32:00,
2013-01-16 05:37:00,7.2,4.8,30.15,SW,223,0.0,0.0,90,0.00,,,0.00,meteohub,2013-01-16 10:37:00,
2013-01-16 05:42:00,7.2,4.8,30.15,SW,223,0.0,0.0,90,0.00,,,0.00,meteohub,2013-01-16 10:42:00,
2013-01-16 05:47:00,7.2,4.6,30.15,SW,223,0.0,0.0,89,0.00,,,0.00,meteohub,2013-01-16 10:47:00,
2013-01-16 05:52:00,7.0,4.6,30.15,SW,223,0.0,0.0,90,0.00,,,0.00,meteohub,2013-01-16 10:52:00,
2013-01-16 05:57:00,6.8,4.3,30.15,SW,223,0.0,0.0,89,0.00,,,0.00,meteohub,2013-01-16 10:57:00,
2013-01-16 06:02:00,6.6,4.3,30.15,SW,223,0.0,1.0,90,0.00,,,0.00,meteohub,2013-01-16 11:02:00,
2013-01-16 06:07:00,6.6,4.3,30.15,SW,223,0.0,1.0,90,0.00,,,0.00,meteohub,2013-01-16 11:07:00,
2013-01-16 06:12:00,6.4,4.1,30.15,SW,223,0.0,1.0,90,0.00,,,0.00,meteohub,2013-01-16 11:12:00,
2013-01-16 06:17:00,6.4,4.1,30.15,SW,223,0.0,0.0,90,0.00,,,0.00,meteohub,2013-01-16 11:17:00,
2013-01-16 06:22:00,6.4,3.9,30.14,SW,223,0.0,0.0,89,0.00,,,0.00,meteohub,2013-01-16 11:22:00,
2013-01-16 06:27:00,6.3,3.7,30.15,SW,223,0.0,0.0,89,0.00,,,0.00,meteohub,2013-01-16 11:27:00,
2013-01-16 06:32:00,6.3,3.7,30.14,SW,223,0.0,0.0,89,0.00,,,0.00,meteohub,2013-01-16 11:32:00,
2013-01-16 06:37:00,6.3,3.7,30.14,SW,223,0.0,0.0,89,0.00,,,0.00,meteohub,2013-01-16 11:37:00,
2013-01-16 06:42:00,6.3,3.7,30.15,SW,223,0.0,0.0,89,0.00,,,0.00,meteohub,2013-01-16 11:42:00,
2013-01-16 06:47:00,6.1,3.6,30.15,SW,223,0.0,0.0,89,0.00,,,0.00,meteohub,2013-01-16 11:47:00,
2013-01-16 06:52:00,6.1,3.6,30.15,SW,223,0.0,0.0,89,0.00,,,0.00,meteohub,2013-01-16 11:52:00,
2013-01-16 06:57:00,6.3,3.9,30.15,SW,223,0.0,0.0,90,0.00,,,0.00,meteohub,2013-01-16 11:57:00,
2013-01-16 07:02:00,6.3,3.9,30.15,SW,223,0.0,0.0,90,0.00,,,0.00,meteohub,2013-01-16 12:02:00,
2013-01-16 07:07:00,6.3,3.9,30.16,SW,223,0.0,0.0,90,0.00,,,0.00,meteohub,2013-01-16 12:07:00,
2013-01-16 07:12:00,6.3,3.7,30.16,SW,223,0.0,0.0,89,0.00,,,0.00,meteohub,2013-01-16 12:12:00,
2013-01-16 07:17:00,6.3,3.7,30.15,SW,223,0.0,0.0,89,0.00,,,0.00,meteohub,2013-01-16 12:17:00,
2013-01-16 07:23:00,6.3,3.9,30.16,SW,223,0.0,0.0,90,0.00,,,0.00,meteohub,2013-01-16 12:23:00,
2013-01-16 07:28:00,6.3,3.9,30.16,SW,223,0.0,0.0,90,0.00,,,0.00,meteohub,2013-01-16 12:28:00,
2013-01-16 07:33:00,6.3,3.7,30.16,SSE,161,0.0,0.0,89,0.00,,,0.00,meteohub,2013-01-16 12:33:00,
2013-01-16 07:39:00,6.1,3.6,30.16,SSE,161,0.0,2.0,89,0.00,,,0.00,meteohub,2013-01-16 12:39:00,
2013-01-16 07:44:00,6.1,3.6,30.16,SSE,161,0.0,2.0,89,0.00,,,0.00,meteohub,2013-01-16 12:44:00,
2013-01-16 07:49:00,6.1,3.6,30.16,SSE,161,0.0,2.0,89,0.00,,,0.00,meteohub,2013-01-16 12:49:00,
2013-01-16 07:54:00,6.1,3.7,30.16,SSE,161,0.0,0.0,90,0.00,,,0.00,meteohub,2013-01-16 12:54:00,
2013-01-16 07:59:00,6.3,3.9,30.16,SSE,161,0.0,0.0,90,0.00,,,0.00,meteohub,2013-01-16 12:59:00,
2013-01-16 08:04:00,6.4,4.1,30.16,SSE,161,0.0,0.0,90,0.00,,,0.00,meteohub,2013-01-16 13:04:00,
2013-01-16 08:09:00,6.4,4.1,30.16,SSE,161,0.0,0.0,90,0.00,,,0.00,meteohub,2013-01-16 13:09:00,
2013-01-16 08:15:00,6.6,4.3,30.16,SSE,161,0.0,0.0,90,0.00,,,0.00,meteohub,2013-01-16 13:15:00,
2013-01-16 08:20:00,6.8,4.5,30.16,SSE,161,0.0,0.0,90,0.00,,,0.00,meteohub,2013-01-16 13:20:00,
2013-01-16 08:25:00,7.0,4.6,30.15,SSE,161,0.0,0.0,90,0.00,,,0.00,meteohub,2013-01-16 13:25:00,
2013-01-16 08:30:00,7.2,4.8,30.15,SSE,161,0.0,0.0,90,0.00,,,0.00,meteohub,2013-01-16 13:30:00,
2013-01-16 08:35:00,7.3,5.0,30.15,SSE,161,0.0,0.0,90,0.00,,,0.00,meteohub,2013-01-16 13:35:00,
2013-01-16 08:40:00,7.5,5.2,30.16,SSE,161,0.0,0.0,90,0.00,,,0.00,meteohub,2013-01-16 13:40:00,
2013-01-16 08:45:00,7.5,5.2,30.16,SSE,161,0.0,0.0,90,0.00,,,0.00,meteohub,2013-01-16 13:45:00,
2013-01-16 08:51:00,7.9,5.5,30.15,SSE,161,0.0,0.0,90,0.00,,,0.00,meteohub,2013-01-16 13:51:00,
2013-01-16 08:56:00,7.9,5.5,30.15,SSE,161,0.0,0.0,90,0.00,,,0.00,meteohub,2013-01-16 13:56:00,
2013-01-16 09:01:00,8.1,5.7,30.15,SSE,161,0.0,0.0,90,0.00,,,0.00,meteohub,2013-01-16 14:01:00,
2013-01-16 09:06:00,8.2,5.9,30.15,SSE,161,0.0,0.0,90,0.00,,,0.00,meteohub,2013-01-16 14:06:00,
2013-01-16 09:11:00,8.6,6.3,30.15,East,82,0.0,1.0,90,0.00,,,0.00,meteohub,2013-01-16 14:11:00,
2013-01-16 09:16:00,8.8,6.4,30.15,East,82,0.0,1.0,90,0.00,,,0.00,meteohub,2013-01-16 14:16:00,
2013-01-16 09:23:00,9.3,7.0,30.14,East,82,0.0,1.0,90,0.00,,,0.00,meteohub,2013-01-16 14:23:00,
2013-01-16 09:28:00,9.9,7.3,30.14,East,82,0.0,1.0,89,0.00,,,0.00,meteohub,2013-01-16 14:28:00,
2013-01-16 09:33:00,10.2,7.7,30.13,East,82,0.0,0.0,89,0.00,,,0.00,meteohub,2013-01-16 14:33:00,
2013-01-16 09:39:00,10.6,7.7,30.13,East,82,0.0,1.0,88,0.00,,,0.00,meteohub,2013-01-16 14:39:00,
2013-01-16 09:44:00,10.8,7.7,30.13,East,82,1.0,1.0,87,0.00,,,0.00,meteohub,2013-01-16 14:44:00,
2013-01-16 09:49:00,10.8,7.7,30.12,East,82,0.0,1.0,87,0.00,,,0.00,meteohub,2013-01-16 14:49:00,
2013-01-16 09:54:00,11.1,8.1,30.12,East,82,0.0,1.0,87,0.00,,,0.00,meteohub,2013-01-16 14:54:00,
2013-01-16 09:59:00,11.7,8.8,30.12,East,82,0.0,1.0,88,0.00,,,0.00,meteohub,2013-01-16 14:59:00,
2013-01-16 10:04:00,12.0,9.0,30.12,East,82,0.0,0.0,87,0.00,,,0.00,meteohub,2013-01-16 15:04:00,
2013-01-16 10:09:00,12.4,9.0,30.11,East,82,0.0,0.0,86,0.00,,,0.00,meteohub,2013-01-16 15:09:00,
2013-01-16 10:15:00,12.7,9.3,30.11,East,82,0.0,0.0,86,0.00,,,0.00,meteohub,2013-01-16 15:15:00,
2013-01-16 10:20:00,13.1,9.7,30.10,East,82,0.0,0.0,86,0.00,,,0.00,meteohub,2013-01-16 15:20:00,
2013-01-16 10:25:00,13.6,10.2,30.10,East,82,0.0,0.0,86,0.00,,,0.00,meteohub,2013-01-16 15:25:00,
2013-01-16 10:30:00,14.0,10.4,30.09,East,82,0.0,0.0,85,0.00,,,0.00,meteohub,2013-01-16 15:30:00,
2013-01-16 10:35:00,14.4,10.8,30.09,East,82,0.0,0.0,85,0.00,,,0.00,meteohub,2013-01-16 15:35:00,
2013-01-16 10:40:00,14.9,11.3,30.08,East,82,0.0,0.0,85,0.00,,,0.00,meteohub,2013-01-16 15:40:00,
2013-01-16 10:45:00,15.6,12.2,30.08,East,82,0.0,1.0,86,0.00,,,0.00,meteohub,2013-01-16 15:45:00,
2013-01-16 10:50:00,16.3,12.6,30.07,East,82,0.0,1.0,85,0.00,,,0.00,meteohub,2013-01-16 15:50:00,
2013-01-16 10:56:00,17.1,13.1,30.07,East,82,0.0,1.0,84,0.00,,,0.00,meteohub,2013-01-16 15:56:00,
2013-01-16 11:01:00,17.4,12.9,30.07,East,82,0.0,0.0,82,0.00,,,0.00,meteohub,2013-01-16 16:01:00,
2013-01-16 11:06:00,17.8,12.9,30.06,East,82,0.0,1.0,81,0.00,,,0.00,meteohub,2013-01-16 16:06:00,
2013-01-16 11:11:00,17.8,12.9,30.06,East,82,0.0,1.0,81,0.00,,,0.00,meteohub,2013-01-16 16:11:00,
2013-01-16 11:16:00,18.1,13.3,30.05,East,82,0.0,1.0,81,0.00,,,0.00,meteohub,2013-01-16 16:16:00,
2013-01-16 11:21:00,18.7,13.8,30.05,East,82,0.0,0.0,81,0.00,,,0.00,meteohub,2013-01-16 16:21:00,
2013-01-16 11:26:00,19.0,13.8,30.04,East,82,0.0,0.0,80,0.00,,,0.00,meteohub,2013-01-16 16:26:00,
2013-01-16 11:31:00,19.6,14.7,30.04,East,82,0.0,0.0,81,0.00,,,0.00,meteohub,2013-01-16 16:31:00,
2013-01-16 11:37:00,19.9,14.7,30.03,East,82,0.0,0.0,80,0.00,,,0.00,meteohub,2013-01-16 16:37:00,
2013-01-16 11:42:00,20.1,14.7,30.03,East,82,0.0,0.0,79,0.00,,,0.00,meteohub,2013-01-16 16:42:00,
2013-01-16 11:47:00,20.3,14.9,30.03,East,82,0.0,0.0,79,0.00,,,0.00,meteohub,2013-01-16 16:47:00,
2013-01-16 11:52:00,20.5,15.1,30.03,East,82,0.0,0.0,79,0.00,,,0.00,meteohub,2013-01-16 16:52:00,
2013-01-16 11:57:00,20.8,15.6,30.02,East,82,0.0,0.0,80,0.00,,,0.00,meteohub,2013-01-16 16:57:00,
2013-01-16 12:02:00,21.0,15.3,30.02,East,82,0.0,0.0,78,0.00,,,0.00,meteohub,2013-01-16 17:02:00,
2013-01-16 12:07:00,21.4,15.8,30.02,East,82,0.0,0.0,79,0.00,,,0.00,meteohub,2013-01-16 17:07:00,
2013-01-16 12:12:00,21.6,16.3,30.02,East,82,0.0,0.0,80,0.00,,,0.00,meteohub,2013-01-16 17:12:00,
2013-01-16 12:17:00,22.1,16.9,30.01,East,82,0.0,0.0,80,0.00,,,0.00,meteohub,2013-01-16 17:17:00,
2013-01-16 12:22:00,22.6,17.1,30.00,East,82,0.0,0.0,79,0.00,,,0.00,meteohub,2013-01-16 17:22:00,
2013-01-16 12:27:00,23.2,17.6,30.00,East,82,0.0,0.0,79,0.00,,,0.00,meteohub,2013-01-16 17:27:00,
2013-01-16 12:32:00,23.5,17.8,30.00,East,82,0.0,0.0,78,0.00,,,0.00,meteohub,2013-01-16 17:32:00,
2013-01-16 12:37:00,24.4,18.3,30.00,SSW,198,0.0,3.0,77,0.00,,,0.00,meteohub,2013-01-16 17:37:00,
2013-01-16 12:42:00,25.3,18.9,29.99,SSW,193,1.0,6.0,76,0.00,,,0.00,meteohub,2013-01-16 17:42:00,
2013-01-16 12:47:00,25.9,18.7,29.99,SSE,159,1.0,6.0,74,0.00,,,0.00,meteohub,2013-01-16 17:47:00,
2013-01-16 12:52:00,26.1,18.7,29.98,South,185,2.0,6.0,73,0.00,,,0.00,meteohub,2013-01-16 17:52:00,
2013-01-16 12:57:00,26.2,18.9,29.98,ESE,123,3.0,6.0,73,0.00,,,0.00,meteohub,2013-01-16 17:57:00,
2013-01-16 13:02:00,26.4,18.7,29.98,SSE,165,2.0,7.0,72,0.00,,,0.00,meteohub,2013-01-16 18:02:00,
2013-01-16 13:07:00,26.4,18.7,29.97,SSE,165,1.0,7.0,72,0.00,,,0.00,meteohub,2013-01-16 18:07:00,
2013-01-16 13:12:00,26.8,19.0,29.97,ESE,113,0.0,6.0,72,0.00,,,0.00,meteohub,2013-01-16 18:12:00,
2013-01-16 13:17:00,27.0,18.9,29.97,SSW,198,2.0,6.0,71,0.00,,,0.00,meteohub,2013-01-16 18:17:00,
2013-01-16 13:22:00,27.0,18.9,29.96,SSE,156,5.0,8.0,71,0.00,,,0.00,meteohub,2013-01-16 18:22:00,
2013-01-16 13:27:00,27.1,18.7,29.96,East,95,5.0,8.0,70,0.00,,,0.00,meteohub,2013-01-16 18:27:00,
2013-01-16 13:32:00,27.1,18.7,29.95,ESE,111,4.0,9.0,70,0.00,,,0.00,meteohub,2013-01-16 18:32:00,
2013-01-16 13:37:00,27.3,18.9,29.95,ESE,123,3.0,10.0,70,0.00,,,0.00,meteohub,2013-01-16 18:37:00,
2013-01-16 13:42:00,27.3,18.5,29.94,South,172,5.0,10.0,69,0.00,,,0.00,meteohub,2013-01-16 18:42:00,
2013-01-16 13:47:00,27.5,18.7,29.94,SE,139,2.0,9.0,69,0.00,,,0.00,meteohub,2013-01-16 18:47:00,
2013-01-16 13:52:00,27.7,18.9,29.94,South,169,6.0,9.0,69,0.00,,,0.00,meteohub,2013-01-16 18:52:00,
2013-01-16 13:57:00,27.7,18.5,29.94,South,171,6.0,9.0,68,0.00,,,0.00,meteohub,2013-01-16 18:57:00,
2013-01-16 14:02:00,27.7,18.9,29.94,WSW,240,0.0,9.0,69,0.00,,,0.00,meteohub,2013-01-16 19:02:00,
2013-01-16 14:07:00,27.9,18.7,29.94,SSE,161,3.0,9.0,68,0.00,,,0.00,meteohub,2013-01-16 19:07:00,
2013-01-16 14:12:00,27.9,18.7,29.93,SSW,194,3.0,9.0,68,0.00,,,0.00,meteohub,2013-01-16 19:12:00,
2013-01-16 14:17:00,27.9,19.0,29.93,SSE,155,4.0,7.0,69,0.00,,,0.00,meteohub,2013-01-16 19:17:00,
2013-01-16 14:22:00,27.9,18.7,29.93,SSW,196,0.0,7.0,68,0.00,,,0.00,meteohub,2013-01-16 19:22:00,
2013-01-16 14:27:00,27.9,18.7,29.92,SSE,167,2.0,6.0,68,0.00,,,0.00,meteohub,2013-01-16 19:27:00,
2013-01-16 14:32:00,28.0,18.9,29.92,SE,126,2.0,6.0,68,0.00,,,0.00,meteohub,2013-01-16 19:32:00,
2013-01-16 14:37:00,28.0,18.5,29.91,South,176,5.0,6.0,67,0.00,,,0.00,meteohub,2013-01-16 19:37:00,
2013-01-16 14:42:00,28.2,18.7,29.91,SSE,148,3.0,9.0,67,0.00,,,0.00,meteohub,2013-01-16 19:42:00,
2013-01-16 14:47:00,28.2,18.3,29.91,SW,219,3.0,9.0,66,0.00,,,0.00,meteohub,2013-01-16 19:47:00,
2013-01-16 14:52:00,28.0,18.1,29.91,SSW,205,3.0,9.0,66,0.00,,,0.00,meteohub,2013-01-16 19:52:00,
2013-01-16 14:57:00,27.9,18.3,29.91,South,188,7.0,10.0,67,0.00,,,0.00,meteohub,2013-01-16 19:57:00,
2013-01-16 15:02:00,27.7,18.1,29.90,South,169,5.0,13.0,67,0.00,,,0.00,meteohub,2013-01-16 20:02:00,
2013-01-16 15:07:00,27.5,18.3,29.90,SSW,209,4.0,13.0,68,0.00,,,0.00,meteohub,2013-01-16 20:07:00,
2013-01-16 15:12:00,27.1,18.7,29.91,SSE,163,3.0,13.0,70,0.00,,,0.00,meteohub,2013-01-16 20:12:00,
2013-01-16 15:17:00,27.0,18.9,29.90,South,178,1.0,12.0,71,0.00,,,0.00,meteohub,2013-01-16 20:17:00,
2013-01-16 15:22:00,26.8,19.0,29.91,SSW,213,1.0,12.0,72,0.00,,,0.00,meteohub,2013-01-16 20:22:00,
2013-01-16 15:27:00,26.8,19.6,29.90,SW,229,5.0,13.0,74,0.00,,,0.00,meteohub,2013-01-16 20:27:00,
2013-01-16 15:32:00,26.4,19.9,29.90,SW,234,5.0,13.0,76,0.00,,,0.00,meteohub,2013-01-16 20:32:00,
2013-01-16 15:37:00,26.2,19.9,29.90,ESE,122,5.0,13.0,77,0.00,,,0.00,meteohub,2013-01-16 20:37:00,
2013-01-16 15:42:00,26.2,20.3,29.90,SW,230,0.0,13.0,78,0.00,,,0.00,meteohub,2013-01-16 20:42:00,
2013-01-16 15:47:00,26.1,20.1,29.90,SSW,196,9.0,11.0,78,0.00,,,0.00,meteohub,2013-01-16 20:47:00,
2013-01-16 15:52:00,26.1,20.5,29.90,SE,126,4.0,10.0,79,0.00,,,0.00,meteohub,2013-01-16 20:52:00,
2013-01-16 15:57:00,25.9,20.5,29.90,South,180,7.0,10.0,80,0.00,,,0.00,meteohub,2013-01-16 20:57:00,
2013-01-16 16:02:00,25.7,20.7,29.90,South,176,0.0,14.0,81,0.00,,,0.00,meteohub,2013-01-16 21:02:00,
2013-01-16 16:07:00,25.5,20.8,29.89,SW,227,4.0,14.0,82,0.00,,,0.00,meteohub,2013-01-16 21:07:00,
2013-01-16 16:12:00,25.3,20.8,29.89,SSE,162,4.0,14.0,83,0.00,,,0.00,meteohub,2013-01-16 21:12:00,
2013-01-16 16:17:00,25.3,21.2,29.89,SSE,155,6.0,12.0,84,0.00,,,0.00,meteohub,2013-01-16 21:17:00,
2013-01-16 16:22:00,25.2,21.0,29.89,SE,140,6.0,10.0,84,0.00,,,0.00,meteohub,2013-01-16 21:22:00,
2013-01-16 16:27:00,25.2,21.4,29.89,SSE,165,4.0,8.0,85,0.00,,,0.00,meteohub,2013-01-16 21:27:00,
2013-01-16 16:32:00,25.2,21.4,29.89,South,180,7.0,10.0,85,0.00,,,0.00,meteohub,2013-01-16 21:32:00,
2013-01-16 16:37:00,25.2,21.4,29.88,SE,137,4.0,10.0,85,0.00,,,0.00,meteohub,2013-01-16 21:37:00,
2013-01-16 16:42:00,25.2,21.4,29.88,ESE,118,5.0,10.0,85,0.00,,,0.00,meteohub,2013-01-16 21:42:00,
2013-01-16 16:47:00,25.0,21.2,29.88,SSW,198,4.0,9.0,85,0.00,,,0.00,meteohub,2013-01-16 21:47:00,
2013-01-16 16:52:00,25.0,21.2,29.89,ESE,110,3.0,9.0,85,0.00,,,0.00,meteohub,2013-01-16 21:52:00,
2013-01-16 16:57:00,25.0,21.2,29.89,SSW,209,1.0,10.0,85,0.00,,,0.00,meteohub,2013-01-16 21:57:00,
2013-01-16 17:02:00,25.0,21.4,29.89,South,170,0.0,10.0,86,0.00,,,0.00,meteohub,2013-01-16 22:02:00,
2013-01-16 17:07:00,25.0,21.4,29.89,SSW,200,3.0,10.0,86,0.00,,,0.00,meteohub,2013-01-16 22:07:00,
2013-01-16 17:12:00,25.0,21.4,29.88,South,178,0.0,7.0,86,0.00,,,0.00,meteohub,2013-01-16 22:12:00,
2013-01-16 17:17:00,24.8,21.2,29.88,South,187,3.0,7.0,86,0.00,,,0.00,meteohub,2013-01-16 22:17:00,
2013-01-16 17:22:00,24.8,21.2,29.87,SSE,148,6.0,7.0,86,0.00,,,0.00,meteohub,2013-01-16 22:22:00,
2013-01-16 17:27:00,24.6,21.0,29.87,SSE,150,2.0,9.0,86,0.00,,,0.00,meteohub,2013-01-16 22:27:00,
2013-01-16 17:32:00,24.6,21.4,29.87,SSW,193,2.0,9.0,87,0.00,,,0.00,meteohub,2013-01-16 22:32:00,
2013-01-16 17:37:00,24.4,21.2,29.87,South,188,1.0,9.0,87,0.00,,,0.00,meteohub,2013-01-16 22:37:00,
2013-01-16 17:42:00,24.4,21.2,29.86,SSE,161,2.0,9.0,87,0.00,,,0.00,meteohub,2013-01-16 22:42:00,
2013-01-16 17:47:00,24.3,21.2,29.86,South,169,2.0,9.0,88,0.00,,,0.00,meteohub,2013-01-16 22:47:00,
2013-01-16 17:52:00,24.3,21.2,29.86,East,94,2.0,9.0,88,0.00,,,0.00,meteohub,2013-01-16 22:52:00,
2013-01-16 17:57:00,24.1,21.0,29.86,ESE,120,2.0,8.0,88,0.00,,,0.00,meteohub,2013-01-16 22:57:00,
2013-01-16 18:02:00,23.9,20.8,29.86,SSE,148,4.0,8.0,88,0.00,,,0.00,meteohub,2013-01-16 23:02:00,
2013-01-16 18:07:00,23.9,20.8,29.85,SSE,165,3.0,7.0,88,0.00,,,0.00,meteohub,2013-01-16 23:07:00,
2013-01-16 18:12:00,23.7,20.7,29.85,SE,132,1.0,7.0,88,0.00,,,0.00,meteohub,2013-01-16 23:12:00,
2013-01-16 18:17:00,23.7,20.7,29.85,South,169,2.0,5.0,88,0.00,,,0.00,meteohub,2013-01-16 23:17:00,
2013-01-16 18:22:00,23.7,20.7,29.84,SE,140,3.0,3.0,88,0.00,,,0.00,meteohub,2013-01-16 23:22:00,
2013-01-16 18:27:00,23.5,20.8,29.84,SE,124,2.0,4.0,89,0.00,,,0.00,meteohub,2013-01-16 23:27:00,
2013-01-16 18:32:00,23.5,20.8,29.84,South,186,0.0,4.0,89,0.00,,,0.00,meteohub,2013-01-16 23:32:00,
2013-01-16 18:37:00,23.5,20.8,29.83,SE,130,1.0,4.0,89,0.00,,,0.00,meteohub,2013-01-16 23:37:00,
2013-01-16 18:42:00,23.5,20.8,29.83,SSW,202,2.0,9.0,89,0.00,,,0.00,meteohub,2013-01-16 23:42:00,
2013-01-16 18:47:00,23.5,20.8,29.83,SE,124,4.0,9.0,89,0.00,,,0.00,meteohub,2013-01-16 23:47:00,
2013-01-16 18:52:00,23.5,20.8,29.82,ESE,117,4.0,9.0,89,0.00,,,0.00,meteohub,2013-01-16 23:52:00,
2013-01-16 18:57:00,23.5,20.8,29.81,ESE,120,2.0,7.0,89,0.00,,,0.00,meteohub,2013-01-16 23:57:00,
2013-01-16 19:02:00,23.5,20.8,29.82,SSE,153,0.0,7.0,89,0.00,,,0.00,meteohub,2013-01-17 00:02:00,
2013-01-16 19:07:00,23.5,20.8,29.81,SE,131,2.0,7.0,89,0.00,,,0.00,meteohub,2013-01-17 00:07:00,
2013-01-16 19:12:00,23.5,21.0,29.81,South,175,0.0,5.0,90,0.00,,,0.00,meteohub,2013-01-17 00:12:00,
2013-01-16 19:17:00,23.5,21.0,29.81,East,101,2.0,4.0,90,0.00,,,0.00,meteohub,2013-01-17 00:17:00,
2013-01-16 19:22:00,23.5,21.0,29.81,SE,128,2.0,7.0,90,0.00,,,0.00,meteohub,2013-01-17 00:22:00,
2013-01-16 19:27:00,23.5,21.0,29.80,SE,126,2.0,7.0,90,0.00,,,0.00,meteohub,2013-01-17 00:27:00,
2013-01-16 19:32:00,23.7,21.2,29.80,SE,126,3.0,7.0,90,0.00,,,0.00,meteohub,2013-01-17 00:32:00,
2013-01-16 19:37:00,23.7,21.2,29.79,East,89,3.0,7.0,90,0.00,,,0.00,meteohub,2013-01-17 00:37:00,
2013-01-16 19:42:00,23.9,21.4,29.79,SSE,161,0.0,7.0,90,0.00,,,0.00,meteohub,2013-01-17 00:42:00,
2013-01-16 19:47:00,23.9,21.4,29.79,SE,130,1.0,7.0,90,0.00,,,0.00,meteohub,2013-01-17 00:47:00,
2013-01-16 19:52:00,23.9,21.4,29.79,SSE,168,2.0,7.0,90,0.00,,,0.00,meteohub,2013-01-17 00:52:00,
2013-01-16 19:57:00,24.1,21.6,29.78,SE,131,0.0,7.0,90,0.00,,,0.00,meteohub,2013-01-17 00:57:00,
2013-01-16 20:02:00,24.1,21.6,29.78,South,190,1.0,7.0,90,0.00,,,0.00,meteohub,2013-01-17 01:02:00,
2013-01-16 20:07:00,24.1,21.9,29.78,SSE,167,5.0,6.0,91,0.00,,,0.00,meteohub,2013-01-17 01:07:00,
2013-01-16 20:12:00,24.1,21.9,29.78,SSE,166,4.0,6.0,91,0.00,,,0.00,meteohub,2013-01-17 01:12:00,
2013-01-16 20:17:00,24.1,21.9,29.78,SSE,163,4.0,7.0,91,0.00,,,0.00,meteohub,2013-01-17 01:17:00,
2013-01-16 20:22:00,24.1,21.9,29.77,SE,136,0.0,7.0,91,0.00,,,0.00,meteohub,2013-01-17 01:22:00,
2013-01-16 20:27:00,24.1,21.9,29.77,SW,221,2.0,8.0,91,0.00,,,0.00,meteohub,2013-01-17 01:27:00,
2013-01-16 20:32:00,24.1,21.9,29.78,ESE,110,2.0,8.0,91,0.00,,,0.00,meteohub,2013-01-17 01:32:00,
2013-01-16 20:37:00,24.1,21.9,29.76,SSE,158,4.0,9.0,91,0.00,,,0.00,meteohub,2013-01-17 01:37:00,
2013-01-16 20:42:00,23.9,21.7,29.76,ESE,120,1.0,9.0,91,0.00,,,0.00,meteohub,2013-01-17 01:42:00,
2013-01-16 20:47:00,23.9,21.9,29.76,ESE,118,2.0,9.0,92,0.00,,,0.00,meteohub,2013-01-17 01:47:00,
2013-01-16 20:52:00,23.9,21.9,29.76,SSE,159,2.0,7.0,92,0.00,,,0.00,meteohub,2013-01-17 01:52:00,
2013-01-16 20:57:00,23.9,21.9,29.75,SSE,162,3.0,7.0,92,0.00,,,0.00,meteohub,2013-01-17 01:57:00,
2013-01-16 21:02:00,23.9,21.9,29.75,South,170,6.0,8.0,92,0.00,,,0.00,meteohub,2013-01-17 02:02:00,
2013-01-16 21:07:00,23.9,21.9,29.75,SE,138,4.0,8.0,92,0.00,,,0.00,meteohub,2013-01-17 02:07:00,
2013-01-16 21:12:00,24.1,22.1,29.75,SSE,153,2.0,8.0,92,0.00,,,0.00,meteohub,2013-01-17 02:12:00,